createdAt,value
2023-04-11T00:01:23.584Z,11.64
2023-04-11T00:03:50.424Z,11.11
2023-04-11T00:06:17.046Z,11.23
2023-04-11T00:08:44.472Z,11.41
2023-04-11T00:11:10.956Z,11.29
2023-04-11T00:13:37.886Z,11.50
2023-04-11T00:16:04.728Z,11.23
2023-04-11T00:18:31.255Z,11.59
2023-04-11T00:20:57.726Z,11.41
2023-04-11T00:23:24.146Z,11.12
2023-04-11T00:25:50.957Z,11.23
2023-04-11T00:28:17.508Z,11.16
2023-04-11T00:30:43.979Z,11.29
2023-04-11T00:33:10.451Z,11.21
2023-04-11T00:35:37.993Z,11.50
2023-04-11T00:38:04.896Z,11.26
2023-04-11T00:40:31.416Z,11.29
2023-04-11T00:42:57.952Z,11.00
2023-04-11T00:45:24.610Z,11.10
2023-04-11T00:47:51.324Z,11.16
2023-04-11T00:50:18.526Z,11.41
2023-04-11T00:52:47.069Z,11.23
2023-04-11T00:55:14.167Z,11.17
2023-04-11T00:57:41.988Z,11.26
2023-04-11T01:00:12.008Z,11.00
2023-04-11T01:02:43.255Z,11.02
2023-04-11T01:05:11.109Z,11.08
2023-04-11T01:07:38.402Z,11.53
2023-04-11T01:10:06.003Z,11.11
2023-04-11T01:12:32.737Z,11.36
2023-04-11T01:14:59.399Z,11.06
2023-04-11T01:17:26.019Z,11.05
2023-04-11T01:19:52.749Z,11.15
2023-04-11T01:22:21.434Z,11.24
2023-04-11T01:24:47.945Z,11.35
2023-04-11T01:27:14.478Z,10.98
2023-04-11T01:29:41.195Z,11.25
2023-04-11T01:32:08.015Z,11.01
2023-04-11T01:34:35.430Z,11.53
2023-04-11T01:37:02.294Z,11.62
2023-04-11T01:39:28.812Z,11.22
2023-04-11T01:41:57.051Z,11.07
2023-04-11T01:44:24.465Z,11.03
2023-04-11T01:46:51.455Z,10.74
2023-04-11T01:49:18.831Z,10.57
2023-04-11T01:51:45.835Z,10.38
2023-04-11T01:54:12.381Z,10.55
2023-04-11T01:56:38.857Z,10.66
2023-04-11T01:59:05.319Z,10.85
2023-04-11T02:01:32.138Z,10.97
2023-04-11T02:03:58.817Z,10.88
2023-04-11T02:06:27.522Z,10.85
2023-04-11T02:08:54.593Z,11.21
2023-04-11T02:11:21.450Z,11.44
2023-04-11T02:13:48.028Z,11.18
2023-04-11T02:16:18.022Z,11.60
2023-04-11T02:18:45.872Z,11.31
2023-04-11T02:21:12.618Z,11.00
2023-04-11T02:23:39.165Z,10.81
2023-04-11T02:26:05.815Z,10.88
2023-04-11T02:28:32.352Z,10.76
2023-04-11T02:30:59.250Z,10.96
2023-04-11T02:33:26.242Z,10.80
2023-04-11T02:35:52.848Z,11.00
2023-04-11T02:38:19.733Z,11.18
2023-04-11T02:40:46.822Z,10.81
2023-04-11T02:43:13.459Z,10.83
2023-04-11T02:45:39.930Z,10.75
2023-04-11T02:48:06.636Z,10.98
2023-04-11T02:50:33.091Z,11.00
2023-04-11T02:52:59.616Z,11.05
2023-04-11T02:55:27.114Z,11.14
2023-04-11T02:57:53.599Z,11.15
2023-04-11T03:00:21.390Z,10.87
2023-04-11T03:02:49.165Z,10.92
2023-04-11T03:05:16.052Z,11.03
2023-04-11T03:07:43.850Z,10.45
2023-04-11T03:10:10.582Z,10.54
2023-04-11T03:12:37.148Z,10.74
2023-04-11T03:15:03.929Z,10.66
2023-04-11T03:17:30.452Z,10.61
2023-04-11T03:19:56.902Z,10.60
2023-04-11T03:22:24.512Z,10.98
2023-04-11T03:24:51.080Z,10.88
2023-04-11T03:27:17.547Z,10.96
2023-04-11T03:29:43.987Z,10.97
2023-04-11T03:32:10.691Z,10.43
2023-04-11T03:34:37.129Z,10.14
2023-04-11T03:37:03.736Z,10.42
2023-04-11T03:39:30.310Z,10.20
2023-04-11T03:41:57.798Z,9.99
2023-04-11T03:44:24.248Z,10.28
2023-04-11T03:46:50.810Z,10.24
2023-04-11T03:49:17.304Z,9.78
2023-04-11T03:51:43.828Z,9.96
2023-04-11T03:54:10.310Z,10.17
2023-04-11T03:56:36.841Z,10.04
2023-04-11T03:59:03.303Z,9.87
2023-04-11T04:01:29.791Z,10.00
2023-04-11T04:03:56.632Z,10.58
2023-04-11T04:06:23.443Z,10.53
2023-04-11T04:08:49.898Z,10.35
2023-04-11T04:11:16.407Z,9.94
2023-04-11T04:13:42.846Z,9.43
2023-04-11T04:16:09.620Z,9.43
2023-04-11T04:18:36.225Z,9.52
2023-04-11T04:21:02.842Z,9.83
2023-04-11T04:23:29.998Z,10.22
2023-04-11T04:25:58.150Z,9.54
2023-04-11T04:28:26.032Z,9.52
2023-04-11T04:30:55.539Z,9.28
2023-04-11T04:33:22.015Z,9.44
2023-04-11T04:35:48.673Z,9.66
2023-04-11T04:38:17.948Z,9.57
2023-04-11T04:40:44.643Z,9.44
2023-04-11T04:43:18.720Z,9.66
2023-04-11T04:45:45.586Z,9.53
2023-04-11T04:48:13.701Z,9.60
2023-04-11T04:50:40.256Z,9.96
2023-04-11T04:53:07.333Z,9.33
2023-04-11T04:55:34.480Z,9.30
2023-04-11T04:58:01.200Z,9.43
2023-04-11T05:00:27.637Z,9.09
2023-04-11T05:02:55.012Z,8.92
2023-04-11T05:05:21.738Z,9.10
2023-04-11T05:07:48.439Z,9.46
2023-04-11T05:10:15.806Z,9.26
2023-04-11T05:12:42.267Z,9.32
2023-04-11T05:15:11.842Z,9.52
2023-04-11T05:17:38.663Z,9.17
2023-04-11T05:20:07.351Z,9.18
2023-04-11T05:22:33.846Z,9.37
2023-04-11T05:25:01.079Z,9.33
2023-04-11T05:27:27.557Z,9.56
2023-04-11T05:29:54.266Z,9.29
2023-04-11T05:32:20.895Z,9.44
2023-04-11T05:34:53.108Z,9.12
2023-04-11T05:37:20.124Z,9.59
2023-04-11T05:39:47.110Z,9.22
2023-04-11T05:42:15.388Z,9.24
2023-04-11T05:44:42.135Z,9.57
2023-04-11T05:47:08.596Z,9.33
2023-04-11T05:49:35.042Z,9.08
2023-04-11T05:52:01.622Z,9.16
2023-04-11T05:54:37.597Z,9.25
2023-04-11T05:57:04.304Z,8.84
2023-04-11T05:59:31.872Z,8.96
2023-04-11T06:01:59.216Z,9.21
2023-04-11T06:04:26.487Z,9.39
2023-04-11T06:06:53.654Z,9.64
2023-04-11T06:09:20.351Z,9.61
2023-04-11T06:11:46.843Z,9.36
2023-04-11T06:14:13.287Z,9.66
2023-04-11T06:16:39.890Z,9.76
2023-04-11T06:19:06.333Z,9.65
2023-04-11T06:21:32.930Z,9.56
2023-04-11T06:24:09.216Z,9.81
2023-04-11T06:26:35.708Z,9.52
2023-04-11T06:29:06.215Z,9.93
2023-04-11T06:31:33.744Z,9.40
2023-04-11T06:34:01.296Z,9.61
2023-04-11T06:36:27.840Z,9.50
2023-04-11T06:38:54.294Z,9.68
2023-04-11T06:41:20.805Z,9.31
2023-04-11T06:43:47.266Z,9.21
2023-04-11T06:46:13.759Z,9.44
2023-04-11T06:48:40.286Z,9.64
2023-04-11T06:51:09.027Z,9.56
2023-04-11T06:53:35.512Z,9.40
2023-04-11T06:56:02.005Z,9.64
2023-04-11T06:58:28.506Z,9.45
2023-04-11T07:00:54.925Z,9.53
2023-04-11T07:03:21.567Z,10.09
2023-04-11T07:05:48.327Z,9.63
2023-04-11T07:08:14.787Z,9.60
2023-04-11T07:10:41.261Z,9.44
2023-04-11T07:13:07.769Z,9.39
2023-04-11T07:15:34.182Z,9.55
2023-04-11T07:18:00.784Z,9.63
2023-04-11T07:20:27.426Z,9.90
2023-04-11T07:22:54.120Z,9.93
2023-04-11T07:25:22.627Z,10.05
2023-04-11T07:27:53.095Z,10.40
2023-04-11T07:30:19.588Z,10.49
2023-04-11T07:32:46.617Z,11.13
2023-04-11T07:35:13.126Z,11.37
2023-04-11T07:37:40.109Z,11.40
2023-04-11T07:40:10.710Z,11.34
2023-04-11T07:42:37.398Z,10.91
2023-04-11T07:45:04.152Z,10.94
2023-04-11T07:47:30.622Z,11.02
2023-04-11T07:49:57.174Z,10.86
2023-04-11T07:52:23.633Z,11.06
2023-04-11T07:54:50.066Z,11.22
2023-04-11T07:57:16.616Z,11.17
2023-04-11T07:59:43.343Z,10.54
2023-04-11T08:02:10.053Z,10.56
2023-04-11T08:04:37.272Z,11.11
2023-04-11T08:07:04.060Z,10.50
2023-04-11T08:09:30.535Z,10.01
2023-04-11T08:11:57.018Z,9.96
2023-04-11T08:14:23.573Z,9.99
2023-04-11T08:16:52.350Z,10.33
2023-04-11T08:19:19.451Z,10.35
2023-04-11T08:21:46.026Z,10.10
2023-04-11T08:24:12.502Z,10.05
2023-04-11T08:26:38.977Z,10.49
2023-04-11T08:29:05.432Z,10.26
2023-04-11T08:31:32.453Z,10.16
2023-04-11T08:34:01.106Z,10.18
2023-04-11T08:36:29.630Z,10.50
2023-04-11T08:38:56.909Z,10.29
2023-04-11T08:41:23.464Z,10.68
2023-04-11T08:43:49.960Z,11.24
2023-04-11T08:46:18.413Z,11.33
2023-04-11T08:48:45.274Z,11.59
2023-04-11T08:51:12.737Z,11.51
2023-04-11T08:53:39.887Z,11.03
2023-04-11T08:56:06.628Z,10.71
2023-04-11T08:58:33.134Z,10.57
2023-04-11T09:01:27.160Z,9.96
2023-04-11T09:03:53.747Z,9.86
2023-04-11T09:06:20.862Z,9.42
2023-04-11T09:08:47.407Z,9.84
2023-04-11T09:11:13.877Z,9.84
2023-04-11T09:13:40.389Z,9.80
2023-04-11T09:16:12.348Z,9.87
2023-04-11T09:18:41.306Z,9.91
2023-04-11T09:21:12.746Z,9.59
2023-04-11T09:23:39.402Z,9.56
2023-04-11T09:26:11.927Z,9.88
2023-04-11T09:28:43.013Z,10.17
2023-04-11T09:31:10.788Z,9.91
2023-04-11T09:33:37.306Z,9.92
2023-04-11T09:36:18.345Z,9.70
2023-04-11T09:38:44.825Z,10.19
2023-04-11T09:41:11.313Z,10.62
2023-04-11T09:43:55.413Z,9.99
2023-04-11T09:46:22.301Z,10.69
2023-04-11T09:48:49.843Z,10.36
2023-04-11T09:51:28.227Z,10.25
2023-04-11T09:54:03.402Z,9.95
2023-04-11T09:56:31.098Z,10.43
2023-04-11T09:59:00.183Z,10.38
2023-04-11T10:01:27.441Z,10.38
2023-04-11T10:03:56.101Z,10.58
2023-04-11T10:06:31.316Z,10.62
2023-04-11T10:09:09.506Z,10.88
2023-04-11T10:11:36.643Z,10.76
2023-04-11T10:14:03.873Z,10.74
2023-04-11T10:16:32.567Z,10.77
2023-04-11T10:19:00.285Z,11.19
2023-04-11T10:21:32.988Z,11.30
2023-04-11T10:24:16.615Z,11.08
2023-04-11T10:26:57.841Z,10.95
2023-04-11T10:29:33.047Z,10.63
2023-04-11T10:32:13.526Z,11.32
2023-04-11T10:34:41.967Z,11.33
2023-04-11T10:37:09.806Z,11.05
2023-04-11T10:39:51.432Z,11.05
2023-04-11T10:42:34.069Z,11.16
2023-04-11T10:45:25.069Z,11.00
2023-04-11T10:47:51.551Z,10.26
2023-04-11T10:50:26.954Z,10.30
2023-04-11T10:53:00.914Z,10.20
2023-04-11T10:55:29.065Z,10.06
2023-04-11T10:58:16.756Z,10.18
2023-04-11T11:00:53.518Z,9.90
2023-04-11T11:03:21.040Z,9.96
2023-04-11T11:05:49.875Z,9.77
2023-04-11T11:08:27.195Z,9.51
2023-04-11T11:10:54.204Z,9.98
2023-04-11T11:13:47.895Z,10.05
2023-04-11T11:16:22.434Z,9.80
2023-04-11T11:18:59.120Z,9.66
2023-04-11T11:24:14.601Z,9.64
2023-04-11T11:26:44.556Z,9.38
2023-04-11T11:29:11.409Z,9.83
2023-04-11T11:31:45.488Z,9.51
2023-04-11T11:34:23.641Z,9.23
2023-04-11T11:36:51.223Z,9.47
2023-04-11T11:39:18.725Z,9.23
2023-04-11T11:41:46.181Z,8.97
2023-04-11T11:44:32.910Z,8.66
2023-04-11T11:47:06.974Z,8.73
2023-04-11T11:49:49.728Z,8.86
2023-04-11T11:52:35.206Z,8.30
2023-04-11T11:55:03.594Z,8.65
2023-04-11T11:57:30.148Z,8.44
2023-04-11T11:59:57.639Z,8.66
2023-04-11T12:02:26.121Z,8.88
2023-04-11T12:05:00.787Z,8.81
2023-04-11T12:07:32.465Z,8.88
2023-04-11T12:10:03.102Z,8.86
2023-04-11T12:12:41.025Z,8.89
2023-04-11T12:15:12.379Z,9.37
2023-04-11T12:17:39.484Z,8.56
2023-04-11T12:20:08.009Z,9.37
2023-04-11T12:22:35.085Z,8.75
2023-04-11T12:25:19.692Z,8.63
2023-04-11T12:27:47.136Z,9.48
2023-04-11T12:30:17.033Z,9.08
2023-04-11T12:32:44.587Z,8.95
2023-04-11T12:35:12.591Z,9.06
2023-04-11T12:37:39.238Z,9.07
2023-04-11T12:40:12.067Z,9.31
2023-04-11T12:42:53.185Z,8.78
2023-04-11T12:45:22.134Z,9.17
2023-04-11T12:47:48.668Z,9.26
2023-04-11T12:50:15.444Z,8.90
2023-04-11T12:52:41.940Z,8.64
2023-04-11T12:55:09.505Z,9.17
2023-04-11T12:57:36.693Z,9.51
2023-04-11T13:00:13.325Z,9.26
2023-04-11T13:02:43.962Z,8.58
2023-04-11T13:05:14.044Z,9.26
2023-04-11T13:07:41.189Z,8.47
2023-04-11T13:10:08.177Z,9.10
2023-04-11T13:12:39.757Z,8.58
2023-04-11T13:15:07.904Z,8.69
2023-04-11T13:17:34.491Z,8.87
2023-04-11T13:20:01.285Z,9.48
2023-04-11T13:22:27.789Z,9.65
2023-04-11T13:24:54.234Z,9.10
2023-04-11T13:27:22.138Z,9.95
2023-04-11T13:29:48.731Z,9.78
2023-04-11T13:32:15.413Z,10.29
2023-04-11T13:34:41.884Z,9.74
2023-04-11T13:37:08.404Z,10.38
2023-04-11T13:39:34.882Z,10.76
2023-04-11T13:42:01.399Z,11.35
2023-04-11T13:44:27.853Z,9.93
2023-04-11T13:46:54.438Z,11.06
2023-04-11T13:49:21.137Z,10.76
2023-04-11T13:51:47.647Z,10.43
2023-04-11T13:54:14.151Z,10.12
2023-04-11T13:56:41.173Z,9.97
2023-04-11T13:59:07.759Z,10.18
2023-04-11T14:01:34.673Z,9.94
2023-04-11T14:04:01.514Z,10.32
2023-04-11T14:06:28.407Z,9.85
2023-04-11T14:08:55.103Z,10.31
2023-04-11T14:11:21.657Z,10.52
2023-04-11T14:13:48.728Z,10.59
2023-04-11T14:16:15.418Z,10.43
2023-04-11T14:18:42.379Z,10.18
2023-04-11T14:21:08.954Z,10.47
2023-04-11T14:23:36.835Z,10.56
2023-04-11T14:26:03.617Z,11.11
2023-04-11T14:28:30.748Z,11.58
2023-04-11T14:30:57.325Z,11.48
2023-04-11T14:33:24.271Z,10.35
2023-04-11T14:35:51.166Z,10.90
2023-04-11T14:38:18.901Z,10.62
2023-04-11T14:40:45.533Z,11.51
2023-04-11T14:43:12.249Z,10.68
2023-04-11T14:45:38.778Z,10.84
2023-04-11T14:48:05.490Z,11.05
2023-04-11T14:50:32.112Z,10.42
2023-04-11T14:52:58.676Z,10.10
2023-04-11T14:55:25.217Z,9.84
2023-04-11T14:57:54.081Z,9.68
2023-04-11T15:00:24.881Z,9.79
2023-04-11T15:02:56.091Z,10.32
2023-04-11T15:05:23.797Z,10.51
2023-04-11T15:07:52.335Z,10.42
2023-04-11T15:10:20.861Z,10.11
2023-04-11T15:12:47.573Z,10.11
2023-04-11T15:15:14.919Z,10.86
2023-04-11T15:17:43.723Z,10.59
2023-04-11T15:20:11.793Z,10.97
2023-04-11T15:22:41.295Z,10.05
2023-04-11T15:25:09.956Z,10.08
2023-04-11T15:27:36.598Z,9.95
2023-04-11T15:30:05.884Z,9.70
2023-04-11T15:32:32.401Z,9.76
2023-04-11T15:34:59.414Z,10.39
2023-04-11T15:37:26.420Z,10.71
2023-04-11T15:39:52.945Z,11.10
2023-04-11T15:42:19.463Z,11.20
2023-04-11T15:44:46.096Z,10.88
2023-04-11T15:47:12.695Z,10.52
2023-04-11T15:49:39.631Z,10.00
2023-04-11T15:52:07.033Z,10.15
2023-04-11T15:54:33.684Z,9.78
2023-04-11T15:57:00.260Z,9.96
2023-04-11T15:59:26.781Z,9.76
2023-04-11T16:01:53.425Z,10.15
2023-04-11T16:04:20.569Z,10.22
2023-04-11T16:06:47.044Z,10.21
2023-04-11T16:09:13.516Z,10.08
2023-04-11T16:11:40.157Z,9.92
2023-04-11T16:14:07.025Z,9.87
2023-04-11T16:16:33.508Z,9.85
2023-04-11T16:18:59.994Z,10.18
2023-04-11T16:21:27.180Z,9.38
2023-04-11T16:23:56.853Z,9.52
2023-04-11T16:26:24.036Z,9.79
2023-04-11T16:28:50.653Z,9.93
2023-04-11T16:31:21.990Z,10.05
2023-04-11T16:33:48.569Z,9.98
2023-04-11T16:36:15.582Z,10.19
2023-04-11T16:38:42.363Z,10.34
2023-04-11T16:41:08.805Z,9.83
2023-04-11T16:43:35.255Z,9.54
2023-04-11T16:46:01.735Z,9.89
2023-04-11T16:48:28.319Z,9.36
2023-04-11T16:50:54.770Z,10.42
2023-04-11T16:53:21.284Z,9.80
2023-04-11T16:55:47.736Z,9.95
2023-04-11T16:58:14.220Z,10.00
2023-04-11T17:00:40.716Z,9.59
2023-04-11T17:03:07.395Z,9.92
2023-04-11T17:05:41.694Z,9.58
2023-04-11T17:08:08.186Z,10.26
2023-04-11T17:10:34.634Z,10.64
2023-04-11T17:13:01.093Z,10.67
2023-04-11T17:15:28.818Z,10.68
2023-04-11T17:17:55.370Z,10.26
2023-04-11T17:20:22.544Z,10.00
2023-04-11T17:22:49.090Z,10.46
2023-04-11T17:25:15.661Z,10.36
2023-04-11T17:27:42.186Z,10.22
2023-04-11T17:30:12.214Z,9.70
2023-04-11T17:32:38.894Z,9.88
2023-04-11T17:35:08.753Z,10.21
2023-04-11T17:37:36.057Z,9.99
2023-04-11T17:40:11.202Z,9.87
2023-04-11T17:42:37.684Z,10.17
2023-04-11T17:45:16.519Z,9.66
2023-04-11T17:47:44.721Z,9.42
2023-04-11T17:50:13.105Z,9.13
2023-04-11T17:52:41.989Z,9.68
2023-04-11T17:55:12.948Z,9.34
2023-04-11T17:57:39.588Z,9.31
2023-04-11T18:00:20.068Z,9.37
2023-04-11T18:02:48.900Z,9.23
2023-04-11T18:05:23.602Z,9.20
2023-04-11T18:07:51.604Z,9.43
2023-04-11T18:10:18.531Z,9.38
2023-04-11T18:12:52.103Z,9.64
2023-04-11T18:15:18.800Z,9.68
2023-04-11T18:17:45.796Z,9.61
2023-04-11T18:20:13.318Z,9.52
2023-04-11T18:22:57.914Z,9.29
2023-04-11T18:25:24.579Z,9.59
2023-04-11T18:27:51.142Z,9.57
2023-04-11T18:30:18.170Z,9.90
2023-04-11T18:32:50.259Z,9.68
2023-04-11T18:35:18.446Z,9.58
2023-04-11T18:37:45.186Z,9.87
2023-04-11T18:40:16.211Z,9.60
2023-04-11T18:42:46.096Z,9.82
2023-04-11T18:45:14.105Z,9.94
2023-04-11T18:47:41.864Z,9.77
2023-04-11T18:50:09.002Z,9.56
2023-04-11T18:52:35.670Z,9.72
2023-04-11T18:55:02.197Z,9.71
2023-04-11T18:57:31.772Z,9.95
2023-04-11T19:00:03.988Z,9.88
2023-04-11T19:02:31.271Z,9.97
2023-04-11T19:05:03.241Z,9.99
2023-04-11T19:07:31.815Z,9.81
2023-04-11T19:09:58.732Z,9.84
2023-04-11T19:12:25.358Z,9.95
2023-04-11T19:14:52.283Z,9.79
2023-04-11T19:17:18.847Z,9.80
2023-04-11T19:19:45.676Z,9.85
2023-04-11T19:22:12.823Z,9.96
2023-04-11T19:24:39.318Z,9.74
2023-04-11T19:27:06.109Z,9.91
2023-04-11T19:29:32.820Z,9.84
2023-04-11T19:31:59.327Z,9.49
2023-04-11T19:34:25.801Z,9.60
2023-04-11T19:36:52.298Z,9.16
2023-04-11T19:39:18.745Z,8.93
2023-04-11T19:41:48.648Z,9.27
2023-04-11T19:44:15.237Z,9.11
2023-04-11T19:46:41.743Z,9.11
2023-04-11T19:49:08.437Z,9.24
2023-04-11T19:51:35.040Z,9.30
2023-04-11T19:54:01.536Z,8.99
2023-04-11T19:56:28.083Z,9.01
2023-04-11T19:58:54.550Z,8.83
2023-04-11T20:01:21.204Z,8.94
2023-04-11T20:03:47.800Z,8.78
2023-04-11T20:06:14.272Z,8.62
2023-04-11T20:08:40.950Z,8.56
2023-04-11T20:11:07.470Z,8.57
2023-04-11T20:13:34.018Z,8.68
2023-04-11T20:16:01.180Z,8.81
2023-04-11T20:18:28.754Z,8.59
2023-04-11T20:20:55.327Z,8.62
2023-04-11T20:23:21.893Z,8.49
2023-04-11T20:25:48.367Z,8.59
2023-04-11T20:28:14.850Z,8.15
2023-04-11T20:30:41.859Z,8.39
2023-04-11T20:33:08.385Z,8.50
2023-04-11T20:35:34.950Z,8.25
2023-04-11T20:38:01.539Z,8.20
2023-04-11T20:40:28.289Z,8.04
2023-04-11T20:42:56.378Z,8.07
2023-04-11T20:45:25.672Z,8.18
2023-04-11T20:47:52.979Z,8.18
2023-04-11T20:50:19.959Z,8.00
2023-04-11T20:52:47.793Z,7.95
2023-04-11T20:55:14.494Z,7.85
2023-04-11T20:57:41.359Z,7.66
2023-04-11T21:00:16.919Z,8.00
2023-04-11T21:02:45.944Z,7.97
2023-04-11T21:05:13.769Z,8.00
2023-04-11T21:07:41.534Z,8.14
2023-04-11T21:10:08.649Z,7.90
2023-04-11T21:12:35.279Z,7.63
2023-04-11T21:15:02.914Z,7.84
2023-04-11T21:17:36.390Z,7.82
2023-04-11T21:20:12.158Z,7.98
2023-04-11T21:22:40.226Z,7.55
2023-04-11T21:25:07.352Z,7.51
2023-04-11T21:27:33.925Z,7.51
2023-04-11T21:30:00.462Z,7.65
2023-04-11T21:32:28.084Z,7.64
2023-04-11T21:34:54.589Z,7.48
2023-04-11T21:37:21.075Z,7.45
2023-04-11T21:39:47.510Z,7.54
2023-04-11T21:42:13.976Z,7.37
2023-04-11T21:44:40.548Z,7.32
2023-04-11T21:47:07.280Z,7.60
2023-04-11T21:49:33.761Z,7.75
2023-04-11T21:52:00.459Z,7.67
2023-04-11T21:54:26.921Z,7.30
2023-04-11T21:56:53.387Z,7.16
2023-04-11T21:59:19.888Z,7.12
2023-04-11T22:01:47.867Z,7.15
2023-04-11T22:04:23.172Z,7.12
2023-04-11T22:06:49.916Z,7.23
2023-04-11T22:09:18.159Z,7.23
2023-04-11T22:11:44.655Z,7.19
2023-04-11T22:14:16.195Z,6.96
2023-04-11T22:16:48.961Z,6.73
2023-04-11T22:19:19.093Z,6.59
2023-04-11T22:21:55.824Z,6.50
2023-04-11T22:24:23.980Z,6.46
2023-04-11T22:26:53.879Z,6.52
2023-04-11T22:29:21.752Z,6.46
2023-04-11T22:31:49.702Z,6.39
2023-04-11T22:34:17.259Z,6.53
2023-04-11T22:36:43.750Z,6.50
2023-04-11T22:39:10.526Z,6.47
2023-04-11T22:41:38.664Z,6.24
2023-04-11T22:44:06.065Z,6.28
2023-04-11T22:46:33.993Z,6.28
2023-04-11T22:49:00.531Z,6.45
2023-04-11T22:51:30.069Z,6.33
2023-04-11T22:53:57.246Z,6.44
2023-04-11T22:56:24.225Z,6.66
2023-04-11T22:58:51.014Z,6.46
2023-04-11T23:01:17.675Z,6.58
2023-04-11T23:03:44.301Z,6.44
2023-04-11T23:06:11.054Z,6.51
2023-04-11T23:08:37.581Z,6.46
2023-04-11T23:11:05.124Z,6.07
2023-04-11T23:13:31.597Z,6.11
2023-04-11T23:16:00.291Z,6.18
2023-04-11T23:18:26.814Z,5.99
2023-04-11T23:20:53.301Z,5.89
2023-04-11T23:23:22.626Z,5.48
2023-04-11T23:25:49.565Z,5.55
2023-04-11T23:28:16.056Z,5.71
2023-04-11T23:30:44.545Z,5.32
2023-04-11T23:33:12.091Z,5.51
2023-04-11T23:35:39.439Z,5.60
2023-04-11T23:38:06.924Z,5.49
2023-04-11T23:40:33.943Z,5.58
2023-04-11T23:43:01.109Z,5.59
2023-04-11T23:45:28.074Z,5.44
2023-04-11T23:47:55.486Z,5.36
2023-04-11T23:50:23.252Z,5.30
2023-04-11T23:52:54.069Z,5.43
2023-04-11T23:55:22.158Z,5.42
2023-04-11T23:57:49.554Z,5.22
